createdAt,value
2023-05-07T00:01:27.154Z,75.50
2023-05-07T00:03:54.293Z,74.48
2023-05-07T00:06:21.315Z,75.38
2023-05-07T00:08:48.175Z,76.46
2023-05-07T00:11:16.187Z,77.00
2023-05-07T00:13:42.940Z,77.48
2023-05-07T00:16:10.037Z,76.95
2023-05-07T00:18:36.955Z,75.64
2023-05-07T00:21:03.958Z,75.41
2023-05-07T00:23:30.762Z,76.80
2023-05-07T00:25:58.386Z,76.67
2023-05-07T00:28:27.280Z,76.78
2023-05-07T00:30:54.182Z,77.59
2023-05-07T00:33:23.452Z,76.20
2023-05-07T00:35:50.237Z,76.18
2023-05-07T00:38:18.414Z,77.32
2023-05-07T00:40:45.443Z,77.17
2023-05-07T00:45:52.890Z,77.80
2023-05-07T00:48:20.132Z,76.49
2023-05-07T00:50:49.318Z,75.76
2023-05-07T00:53:16.073Z,77.04
2023-05-07T00:55:43.222Z,78.87
2023-05-07T00:58:10.046Z,81.40
2023-05-07T01:00:38.139Z,79.88
2023-05-07T01:03:11.417Z,80.77
2023-05-07T01:06:05.599Z,80.00
2023-05-07T01:08:33.887Z,80.34
2023-05-07T01:11:01.506Z,82.13
2023-05-07T01:13:29.275Z,84.06
2023-05-07T01:15:56.331Z,83.40
2023-05-07T01:18:26.478Z,81.29
2023-05-07T01:20:53.678Z,82.33
2023-05-07T01:23:20.602Z,80.68
2023-05-07T01:25:56.660Z,77.50
2023-05-07T01:28:23.730Z,78.00
2023-05-07T01:31:00.859Z,80.59
2023-05-07T01:33:32.915Z,79.10
2023-05-07T01:36:03.288Z,80.42
2023-05-07T01:38:32.220Z,79.08
2023-05-07T01:40:59.504Z,79.47
2023-05-07T01:43:26.660Z,80.18
2023-05-07T01:45:53.837Z,79.40
2023-05-07T01:48:22.421Z,80.58
2023-05-07T01:50:49.516Z,82.03
2023-05-07T01:53:16.450Z,83.39
2023-05-07T01:55:43.489Z,82.67
2023-05-07T01:58:10.399Z,83.08
2023-05-07T02:00:37.664Z,81.23
2023-05-07T02:03:04.624Z,81.73
2023-05-07T02:05:31.505Z,83.28
2023-05-07T02:08:01.374Z,83.65
2023-05-07T02:10:28.376Z,82.89
2023-05-07T02:12:55.159Z,83.84
2023-05-07T02:15:22.270Z,84.81
2023-05-07T02:18:08.050Z,84.36
2023-05-07T02:20:34.913Z,84.47
2023-05-07T02:23:01.923Z,84.31
2023-05-07T02:25:28.827Z,84.21
2023-05-07T02:27:55.739Z,85.43
2023-05-07T02:30:24.736Z,87.37
2023-05-07T02:32:56.033Z,86.81
2023-05-07T02:35:22.777Z,86.59
2023-05-07T02:37:57.701Z,89.47
2023-05-07T02:40:24.758Z,88.57
2023-05-07T02:42:51.575Z,87.67
2023-05-07T02:45:18.641Z,87.23
2023-05-07T02:47:45.756Z,89.01
2023-05-07T02:50:12.851Z,88.55
2023-05-07T02:52:40.293Z,89.01
2023-05-07T02:55:07.616Z,88.31
2023-05-07T02:57:34.290Z,88.92
2023-05-07T03:00:15.317Z,89.88
2023-05-07T03:02:42.535Z,90.70
2023-05-07T03:05:18.612Z,90.29
2023-05-07T03:07:47.278Z,89.66
2023-05-07T03:10:19.102Z,89.93
2023-05-07T03:12:46.032Z,90.13
2023-05-07T03:15:13.958Z,89.64
2023-05-07T03:17:40.857Z,90.76
2023-05-07T03:20:08.731Z,89.72
2023-05-07T03:22:36.017Z,89.21
2023-05-07T03:25:12.157Z,86.13
2023-05-07T03:27:39.391Z,85.83
2023-05-07T03:30:08.293Z,85.40
2023-05-07T03:32:37.196Z,86.22
2023-05-07T03:35:06.038Z,86.66
2023-05-07T03:37:35.927Z,87.79
2023-05-07T03:40:12.013Z,88.64
2023-05-07T03:42:39.104Z,86.71
2023-05-07T03:45:09.346Z,86.34
2023-05-07T03:47:36.248Z,88.47
2023-05-07T03:50:03.037Z,85.23
2023-05-07T03:52:29.911Z,83.99
2023-05-07T03:55:00.938Z,84.52
2023-05-07T03:57:45.229Z,86.11
2023-05-07T04:00:13.551Z,84.61
2023-05-07T04:02:40.766Z,83.88
2023-05-07T04:05:13.684Z,83.87
2023-05-07T04:07:40.556Z,82.09
2023-05-07T04:10:07.717Z,83.80
2023-05-07T04:12:35.685Z,83.09
2023-05-07T04:15:02.491Z,83.58
2023-05-07T04:17:29.382Z,83.62
2023-05-07T04:19:58.976Z,81.81
2023-05-07T04:22:25.919Z,82.45
2023-05-07T04:24:52.751Z,80.59
2023-05-07T04:27:19.548Z,81.15
2023-05-07T04:32:30.312Z,80.46
2023-05-07T04:35:05.051Z,75.93
2023-05-07T04:37:33.489Z,76.12
2023-05-07T04:40:01.624Z,75.95
2023-05-07T04:42:29.031Z,74.39
2023-05-07T04:44:57.466Z,73.63
2023-05-07T04:47:24.521Z,71.90
2023-05-07T04:49:57.664Z,67.30
2023-05-07T04:52:26.017Z,66.31
2023-05-07T04:54:54.125Z,66.13
2023-05-07T04:57:20.992Z,63.50
2023-05-07T04:59:56.778Z,63.61
2023-05-07T05:02:23.581Z,63.11
2023-05-07T05:04:50.791Z,61.37
2023-05-07T05:07:17.628Z,61.01
2023-05-07T05:09:44.431Z,63.27
2023-05-07T05:12:15.394Z,69.97
2023-05-07T05:14:42.040Z,72.45
2023-05-07T05:17:08.968Z,69.37
2023-05-07T05:19:35.862Z,67.72
2023-05-07T05:22:04.972Z,68.10
2023-05-07T05:27:13.558Z,63.74
2023-05-07T05:29:40.473Z,62.20
2023-05-07T05:32:07.618Z,62.75
2023-05-07T05:34:34.481Z,62.24
2023-05-07T05:37:01.482Z,62.27
2023-05-07T05:39:28.216Z,63.01
2023-05-07T05:41:55.154Z,69.07
2023-05-07T05:44:21.944Z,63.24
2023-05-07T05:46:50.747Z,62.12
2023-05-07T05:49:17.628Z,65.94
2023-05-07T05:51:44.822Z,62.17
2023-05-07T05:54:11.528Z,60.37
2023-05-07T05:56:39.000Z,63.67
2023-05-07T05:59:09.351Z,61.44
2023-05-07T06:01:38.994Z,57.26
2023-05-07T06:04:05.965Z,60.70
2023-05-07T06:06:33.367Z,60.74
2023-05-07T06:09:00.563Z,56.83
2023-05-07T06:11:27.918Z,55.69
2023-05-07T06:13:55.083Z,57.52
2023-05-07T06:16:24.571Z,54.07
2023-05-07T06:18:51.482Z,53.75
2023-05-07T06:21:19.361Z,54.11
2023-05-07T06:23:46.167Z,57.58
2023-05-07T06:26:15.788Z,54.34
2023-05-07T06:28:43.225Z,53.67
2023-05-07T06:31:16.428Z,53.71
2023-05-07T06:33:44.132Z,53.50
2023-05-07T06:38:46.290Z,53.00
2023-05-07T06:41:14.918Z,54.24
2023-05-07T06:43:44.073Z,53.38
2023-05-07T06:46:10.942Z,52.04
2023-05-07T06:48:37.736Z,55.07
2023-05-07T06:51:04.740Z,55.93
2023-05-07T06:53:32.994Z,54.09
2023-05-07T06:56:00.332Z,56.14
2023-05-07T06:58:28.122Z,51.72
2023-05-07T07:00:57.869Z,52.49
2023-05-07T07:03:24.791Z,54.22
2023-05-07T07:05:55.480Z,54.31
2023-05-07T07:08:32.905Z,51.13
2023-05-07T07:11:10.529Z,53.28
2023-05-07T07:14:09.260Z,51.84
2023-05-07T07:16:36.165Z,49.15
2023-05-07T07:19:03.063Z,51.24
2023-05-07T07:21:29.783Z,49.75
2023-05-07T07:23:59.973Z,51.83
2023-05-07T07:26:37.683Z,50.40
2023-05-07T07:29:10.645Z,47.16
2023-05-07T07:31:40.497Z,47.56
2023-05-07T07:34:07.358Z,46.32
2023-05-07T07:36:42.794Z,48.69
2023-05-07T07:39:13.862Z,48.52
2023-05-07T07:41:40.580Z,47.73
2023-05-07T07:44:08.750Z,49.30
2023-05-07T07:46:36.007Z,48.48
2023-05-07T07:49:02.905Z,48.50
2023-05-07T07:51:29.701Z,48.17
2023-05-07T07:53:56.557Z,46.64
2023-05-07T07:56:23.420Z,47.20
2023-05-07T07:58:50.271Z,46.67
2023-05-07T08:01:18.445Z,45.38
2023-05-07T08:03:45.335Z,44.69
2023-05-07T08:06:12.319Z,44.38
2023-05-07T08:08:39.284Z,44.67
2023-05-07T08:11:06.150Z,42.40
2023-05-07T08:13:44.692Z,42.21
2023-05-07T08:16:25.253Z,41.88
2023-05-07T08:18:52.480Z,45.63
2023-05-07T08:21:19.240Z,43.24
2023-05-07T08:23:46.084Z,43.50
2023-05-07T08:26:13.166Z,44.34
2023-05-07T08:28:40.855Z,43.68
2023-05-07T08:31:09.816Z,43.28
2023-05-07T08:33:37.858Z,42.30
2023-05-07T08:38:47.078Z,42.66
2023-05-07T08:41:14.223Z,41.99
2023-05-07T08:43:42.731Z,41.01
2023-05-07T08:46:12.559Z,42.56
2023-05-07T08:48:39.609Z,39.88
2023-05-07T08:51:07.989Z,40.68
2023-05-07T08:53:34.990Z,40.44
2023-05-07T08:56:02.285Z,39.08
2023-05-07T08:58:30.198Z,39.56
2023-05-07T09:00:58.184Z,41.31
2023-05-07T09:03:25.244Z,40.05
2023-05-07T09:05:52.024Z,39.85
2023-05-07T09:08:21.384Z,40.85
2023-05-07T09:10:49.862Z,39.35
2023-05-07T09:13:19.546Z,40.35
2023-05-07T09:15:46.536Z,39.95
2023-05-07T09:18:17.014Z,40.42
2023-05-07T09:20:44.794Z,40.05
2023-05-07T09:23:11.671Z,39.67
2023-05-07T09:25:38.506Z,40.70
2023-05-07T09:28:08.331Z,40.70
2023-05-07T09:30:36.083Z,40.05
2023-05-07T09:33:05.194Z,41.10
2023-05-07T09:35:34.530Z,38.83
2023-05-07T09:38:04.291Z,39.34
2023-05-07T09:40:32.372Z,40.38
2023-05-07T09:43:14.789Z,38.25
2023-05-07T09:45:42.324Z,36.94
2023-05-07T09:48:10.136Z,37.67
2023-05-07T09:50:42.201Z,37.59
2023-05-07T09:53:11.453Z,35.11
2023-05-07T09:55:39.195Z,34.89
2023-05-07T09:58:14.981Z,35.67
2023-05-07T10:00:42.510Z,36.45
2023-05-07T10:03:11.071Z,35.10
2023-05-07T10:05:38.922Z,35.24
2023-05-07T10:08:08.566Z,36.84
2023-05-07T10:10:35.496Z,33.85
2023-05-07T10:13:09.235Z,35.14
2023-05-07T10:15:36.449Z,35.40
2023-05-07T10:18:05.513Z,35.08
2023-05-07T10:20:34.466Z,38.10
2023-05-07T10:23:06.963Z,36.33
2023-05-07T10:25:34.238Z,34.25
2023-05-07T10:28:08.410Z,36.04
2023-05-07T10:30:47.678Z,35.74
2023-05-07T10:33:18.342Z,34.57
2023-05-07T10:35:52.410Z,33.25
2023-05-07T10:38:20.382Z,34.33
2023-05-07T10:40:50.040Z,33.70
2023-05-07T10:43:16.972Z,33.18
2023-05-07T10:45:44.090Z,34.59
2023-05-07T10:48:29.376Z,35.00
2023-05-07T10:51:21.095Z,33.91
2023-05-07T10:53:48.060Z,31.70
2023-05-07T10:56:42.618Z,31.84
2023-05-07T10:59:33.529Z,31.54
2023-05-07T11:02:04.215Z,31.29
2023-05-07T11:04:35.913Z,32.01
2023-05-07T11:07:15.480Z,32.17
2023-05-07T11:12:37.742Z,32.93
2023-05-07T11:15:06.959Z,33.01
2023-05-07T11:17:37.521Z,31.96
2023-05-07T11:20:08.487Z,31.85
2023-05-07T11:22:36.878Z,32.54
2023-05-07T11:25:07.973Z,32.15
2023-05-07T11:27:35.287Z,30.97
2023-05-07T11:30:05.300Z,30.42
2023-05-07T11:35:16.538Z,30.43
2023-05-07T11:37:45.974Z,31.70
2023-05-07T11:40:15.112Z,31.52
2023-05-07T11:42:44.560Z,30.57
2023-05-07T11:45:11.810Z,32.28
2023-05-07T11:47:50.705Z,30.24
2023-05-07T11:50:19.818Z,29.52
2023-05-07T11:52:59.063Z,29.58
2023-05-07T11:55:27.450Z,30.69
2023-05-07T11:57:55.942Z,30.21
2023-05-07T12:00:22.702Z,29.55
2023-05-07T12:02:49.649Z,31.09
2023-05-07T12:05:17.025Z,29.01
2023-05-07T12:07:43.870Z,29.41
2023-05-07T12:10:12.895Z,29.07
2023-05-07T12:12:45.899Z,29.93
2023-05-07T12:15:16.769Z,29.83
2023-05-07T12:17:43.977Z,29.83
2023-05-07T12:20:11.475Z,30.27
2023-05-07T12:22:38.515Z,29.72
2023-05-07T12:25:06.841Z,29.23
2023-05-07T12:27:33.749Z,29.94
2023-05-07T12:30:00.606Z,29.29
2023-05-07T12:32:27.494Z,28.84
2023-05-07T12:34:54.372Z,28.93
2023-05-07T12:37:30.370Z,28.68
2023-05-07T12:40:12.165Z,29.17
2023-05-07T12:42:41.064Z,29.52
2023-05-07T12:45:17.693Z,30.33
2023-05-07T12:48:06.037Z,29.29
2023-05-07T12:50:37.967Z,29.75
2023-05-07T12:53:22.580Z,29.54
2023-05-07T12:55:51.568Z,29.68
2023-05-07T12:58:43.991Z,29.47
2023-05-07T13:01:24.582Z,28.80
2023-05-07T13:03:55.786Z,28.42
2023-05-07T13:06:22.565Z,28.52
2023-05-07T13:08:49.406Z,28.20
2023-05-07T13:11:17.820Z,28.51
2023-05-07T13:13:44.576Z,27.26
2023-05-07T13:16:22.320Z,27.08
2023-05-07T13:18:49.359Z,28.29
2023-05-07T13:21:16.247Z,27.80
2023-05-07T13:26:34.219Z,28.27
2023-05-07T13:29:01.591Z,28.68
2023-05-07T13:31:28.322Z,27.75
2023-05-07T13:33:57.491Z,27.25
2023-05-07T13:36:26.955Z,27.25
2023-05-07T13:39:00.451Z,27.24
2023-05-07T13:41:28.066Z,27.59
2023-05-07T13:43:55.119Z,27.38
2023-05-07T13:46:23.042Z,28.71
2023-05-07T13:48:49.990Z,28.11
2023-05-07T13:51:16.732Z,27.28
2023-05-07T13:53:43.626Z,26.66
2023-05-07T13:56:10.337Z,26.56
2023-05-07T13:58:42.165Z,27.31
2023-05-07T14:01:20.902Z,26.97
2023-05-07T14:03:51.417Z,26.66
2023-05-07T14:06:18.269Z,26.97
2023-05-07T14:08:45.107Z,26.37
2023-05-07T14:11:11.830Z,26.47
2023-05-07T14:13:38.600Z,26.69
2023-05-07T14:16:05.806Z,26.46
2023-05-07T14:18:32.512Z,27.58
2023-05-07T14:21:07.060Z,27.86
2023-05-07T14:23:33.994Z,28.44
2023-05-07T14:26:03.167Z,28.62
2023-05-07T14:28:32.006Z,27.58
2023-05-07T14:30:58.921Z,28.03
2023-05-07T14:33:26.173Z,29.10
2023-05-07T14:35:54.598Z,28.48
2023-05-07T14:38:21.398Z,29.15
2023-05-07T14:40:56.027Z,28.42
2023-05-07T14:43:23.639Z,28.80
2023-05-07T14:45:51.194Z,29.68
2023-05-07T14:48:21.026Z,29.38
2023-05-07T14:50:59.596Z,29.39
2023-05-07T14:53:27.047Z,30.00
2023-05-07T14:55:54.276Z,31.02
2023-05-07T14:58:22.232Z,30.81
2023-05-07T15:00:49.635Z,31.65
2023-05-07T15:05:59.572Z,31.98
2023-05-07T15:08:38.773Z,32.27
2023-05-07T15:11:05.832Z,32.23
2023-05-07T15:13:32.775Z,32.65
2023-05-07T15:15:59.869Z,32.79
2023-05-07T15:18:27.030Z,33.05
2023-05-07T15:20:53.699Z,33.63
2023-05-07T15:23:20.985Z,34.13
2023-05-07T15:25:49.683Z,34.67
2023-05-07T15:28:17.326Z,34.37
2023-05-07T15:30:44.222Z,35.23
2023-05-07T15:33:11.340Z,34.82
2023-05-07T15:35:40.893Z,36.42
2023-05-07T15:38:25.529Z,38.67
2023-05-07T15:40:52.213Z,39.16
2023-05-07T15:43:19.085Z,39.56
2023-05-07T15:45:45.869Z,40.29
2023-05-07T15:48:12.835Z,39.94
2023-05-07T15:50:39.756Z,40.74
2023-05-07T15:53:08.569Z,40.90
2023-05-07T15:55:35.680Z,41.06
2023-05-07T15:58:04.327Z,40.91
2023-05-07T16:00:31.208Z,40.56
2023-05-07T16:02:58.126Z,40.58
2023-05-07T16:05:25.452Z,39.92
2023-05-07T16:08:23.898Z,40.53
2023-05-07T16:10:51.151Z,40.43
2023-05-07T16:13:19.666Z,40.29
2023-05-07T16:15:47.257Z,39.76
2023-05-07T16:18:16.920Z,39.73
2023-05-07T16:20:44.090Z,39.55
2023-05-07T16:23:13.202Z,39.96
2023-05-07T16:25:40.383Z,39.95
2023-05-07T16:30:54.623Z,40.26
2023-05-07T16:33:21.867Z,40.22
2023-05-07T16:35:54.582Z,39.40
2023-05-07T16:38:21.921Z,39.16
2023-05-07T16:40:51.064Z,40.42
2023-05-07T16:43:18.090Z,39.54
2023-05-07T16:48:28.137Z,40.28
2023-05-07T16:53:36.293Z,40.05
2023-05-07T16:56:10.492Z,40.14
2023-05-07T16:58:41.701Z,40.17
2023-05-07T17:01:11.081Z,40.27
2023-05-07T17:03:39.983Z,39.70
2023-05-07T17:09:09.616Z,40.33
2023-05-07T17:14:34.467Z,40.46
2023-05-07T17:17:01.258Z,40.76
2023-05-07T17:19:28.033Z,41.41
2023-05-07T17:21:55.281Z,43.68
2023-05-07T17:24:23.186Z,43.61
2023-05-07T17:26:50.030Z,44.48
2023-05-07T17:29:17.041Z,44.74
2023-05-07T17:31:43.996Z,45.10
2023-05-07T17:34:10.803Z,46.05
2023-05-07T17:36:38.492Z,47.21
2023-05-07T17:39:05.497Z,48.38
2023-05-07T17:41:41.100Z,48.47
2023-05-07T17:44:08.281Z,48.45
2023-05-07T17:46:34.980Z,49.02
2023-05-07T17:49:04.388Z,49.31
2023-05-07T17:51:38.898Z,49.06
2023-05-07T17:54:13.006Z,48.66
2023-05-07T17:56:40.918Z,49.18
2023-05-07T18:01:51.896Z,48.74
2023-05-07T18:04:21.592Z,50.21
2023-05-07T18:09:32.467Z,51.37
2023-05-07T18:12:00.365Z,51.48
2023-05-07T18:14:32.162Z,52.18
2023-05-07T18:17:01.248Z,51.64
2023-05-07T18:19:28.500Z,52.29
2023-05-07T18:21:57.300Z,53.15
2023-05-07T18:24:24.187Z,53.94
2023-05-07T18:26:51.359Z,55.26
2023-05-07T18:29:18.132Z,55.00
2023-05-07T18:31:44.979Z,54.20
2023-05-07T18:34:11.914Z,55.91
2023-05-07T18:36:56.822Z,56.41
2023-05-07T18:39:23.837Z,56.70
2023-05-07T18:41:50.840Z,56.65
2023-05-07T18:44:17.562Z,56.84
2023-05-07T18:46:45.549Z,57.45
2023-05-07T18:49:12.313Z,57.03
2023-05-07T18:51:45.963Z,58.02
2023-05-07T18:54:13.045Z,58.27
2023-05-07T18:56:42.188Z,58.77
2023-05-07T18:59:09.530Z,58.37
2023-05-07T19:01:36.318Z,58.93
2023-05-07T19:04:03.193Z,59.61
2023-05-07T19:06:33.415Z,60.05
2023-05-07T19:09:00.805Z,61.06
2023-05-07T19:11:27.958Z,61.31
2023-05-07T19:13:54.890Z,60.77
2023-05-07T19:16:22.963Z,61.34
2023-05-07T19:18:49.856Z,62.20
2023-05-07T19:21:16.819Z,60.95
2023-05-07T19:23:43.849Z,61.73
2023-05-07T19:26:11.323Z,61.84
2023-05-07T19:28:45.055Z,62.06
2023-05-07T19:31:20.355Z,62.69
2023-05-07T19:33:47.592Z,61.96
2023-05-07T19:36:14.470Z,62.01
2023-05-07T19:38:41.306Z,62.61
2023-05-07T19:41:09.225Z,63.67
2023-05-07T19:43:40.878Z,64.97
2023-05-07T19:46:08.121Z,64.58
2023-05-07T19:48:35.153Z,64.58
2023-05-07T19:51:05.250Z,65.14
2023-05-07T19:53:32.279Z,64.24
2023-05-07T19:58:57.850Z,64.20
2023-05-07T20:01:25.073Z,63.71
2023-05-07T20:03:52.159Z,64.40
2023-05-07T20:06:23.492Z,63.85
2023-05-07T20:08:50.862Z,63.22
2023-05-07T20:11:36.899Z,64.04
2023-05-07T20:14:06.118Z,64.32
2023-05-07T20:16:33.779Z,64.82
2023-05-07T20:19:03.182Z,64.63
2023-05-07T20:21:30.094Z,64.29
2023-05-07T20:23:57.136Z,64.77
2023-05-07T20:26:25.013Z,64.22
2023-05-07T20:28:52.012Z,65.95
2023-05-07T20:31:19.323Z,64.98
2023-05-07T20:33:46.496Z,64.36
2023-05-07T20:36:13.484Z,64.66
2023-05-07T20:38:40.253Z,63.59
2023-05-07T20:41:08.738Z,63.99
2023-05-07T20:43:39.682Z,61.91
2023-05-07T20:46:07.987Z,62.46
2023-05-07T20:48:38.565Z,63.34
2023-05-07T20:51:05.377Z,62.59
2023-05-07T20:53:41.577Z,62.70
2023-05-07T20:56:08.568Z,64.38
2023-05-07T20:58:35.632Z,63.92
2023-05-07T21:01:05.815Z,64.73
2023-05-07T21:03:32.807Z,65.97
2023-05-07T21:06:00.643Z,66.32
2023-05-07T21:08:27.901Z,67.16
2023-05-07T21:11:04.200Z,68.05
2023-05-07T21:13:39.813Z,68.42
2023-05-07T21:16:06.935Z,67.89
2023-05-07T21:18:33.774Z,68.81
2023-05-07T21:21:00.518Z,68.98
2023-05-07T21:26:08.404Z,70.37
2023-05-07T21:28:35.369Z,69.06
2023-05-07T21:31:02.239Z,72.56
2023-05-07T21:33:29.091Z,70.85
2023-05-07T21:35:56.042Z,70.69
2023-05-07T21:38:22.760Z,69.79
2023-05-07T21:40:49.677Z,69.90
2023-05-07T21:43:16.614Z,69.37
2023-05-07T21:48:24.304Z,68.59
2023-05-07T21:51:05.450Z,67.19
2023-05-07T21:53:33.158Z,66.90
2023-05-07T21:56:00.459Z,67.46
2023-05-07T21:58:27.438Z,67.56
2023-05-07T22:00:54.544Z,67.97
2023-05-07T22:03:21.475Z,66.45
2023-05-07T22:05:49.827Z,68.38
2023-05-07T22:08:17.218Z,67.47
2023-05-07T22:10:44.068Z,66.89
2023-05-07T22:13:10.945Z,68.19
2023-05-07T22:15:49.112Z,68.51
2023-05-07T22:18:23.485Z,66.49
2023-05-07T22:20:52.953Z,66.57
2023-05-07T22:23:19.976Z,67.76
2023-05-07T22:25:46.940Z,69.67
2023-05-07T22:28:13.933Z,71.07
2023-05-07T22:30:40.911Z,71.12
2023-05-07T22:33:07.774Z,70.16
2023-05-07T22:35:35.015Z,71.36
2023-05-07T22:38:01.987Z,72.21
2023-05-07T22:40:28.739Z,74.30
2023-05-07T22:42:57.712Z,77.86
2023-05-07T22:45:24.490Z,79.47
2023-05-07T22:47:51.223Z,78.99
2023-05-07T22:50:18.651Z,79.50
2023-05-07T22:52:45.617Z,80.21
2023-05-07T22:55:12.439Z,79.31
2023-05-07T22:57:39.398Z,79.97
2023-05-07T23:00:06.993Z,82.31
2023-05-07T23:02:34.004Z,82.15
2023-05-07T23:05:02.284Z,80.58
2023-05-07T23:07:29.336Z,82.11
2023-05-07T23:09:56.291Z,81.64
2023-05-07T23:12:23.379Z,79.68
2023-05-07T23:14:52.993Z,79.16
2023-05-07T23:17:19.794Z,79.14
2023-05-07T23:19:48.387Z,77.22
2023-05-07T23:22:18.184Z,75.46
2023-05-07T23:24:45.033Z,76.12
2023-05-07T23:27:12.166Z,75.37
2023-05-07T23:29:38.902Z,76.33
2023-05-07T23:32:05.717Z,77.08
2023-05-07T23:34:32.769Z,79.95
2023-05-07T23:36:59.560Z,79.01
2023-05-07T23:39:26.500Z,79.83
2023-05-07T23:41:53.528Z,81.37
2023-05-07T23:44:20.309Z,80.41
2023-05-07T23:46:50.233Z,80.33
2023-05-07T23:49:17.269Z,82.58
2023-05-07T23:51:44.308Z,81.87
2023-05-07T23:54:11.198Z,82.77
2023-05-07T23:56:38.477Z,85.63
2023-05-07T23:59:05.460Z,86.61
